Time;durP1;ratioP1;P1;durP2;ratioP2;P2;SDS_P1;SDS_P2;PMS_P1;PMS_P2;Temp;Humidity;BMP_temperature;BMP_pressure;BME280_temperature;BME280_humidity;BME280_pressure;Samples;Min_cycle;Max_cycle;Signal;HPM_P1;HPM_P2
2021/12/22 00:00:15;;;;;;;15.48;9.43;;;15.00;69.90;;;;;;3942835;29;20063;-59
2021/12/22 00:02:39;;;;;;;12.13;8.07;;;15.00;69.40;;;;;;3943009;29;20564;-59
2021/12/22 00:05:03;;;;;;;11.57;8.63;;;15.10;69.40;;;;;;3942698;29;20506;-62
2021/12/22 00:07:24;;;;;;;13.80;9.38;;;15.10;69.60;;;;;;3942885;29;20055;-62
2021/12/22 00:09:46;;;;;;;14.63;8.93;;;15.10;69.30;;;;;;3954530;29;20130;-62
2021/12/22 00:12:09;;;;;;;10.23;8.27;;;15.10;69.30;;;;;;3942296;29;20060;-62
2021/12/22 00:14:31;;;;;;;15.88;8.43;;;15.10;69.30;;;;;;3927864;30;20933;-62
2021/12/22 00:16:54;;;;;;;12.35;8.25;;;15.20;69.40;;;;;;3934762;29;20067;-62
2021/12/22 00:19:16;;;;;;;11.23;8.77;;;15.20;69.20;;;;;;3942151;29;20061;-61
2021/12/22 00:21:40;;;;;;;10.75;7.97;;;15.30;68.60;;;;;;3953210;29;20338;-61
2021/12/22 00:24:01;;;;;;;10.00;8.18;;;15.40;68.80;;;;;;3941515;29;20460;-64
2021/12/22 00:26:24;;;;;;;10.35;8.05;;;15.50;67.60;;;;;;3942174;29;20056;-63
2021/12/22 00:28:47;;;;;;;13.90;8.52;;;15.50;67.30;;;;;;3927993;30;20052;-63
2021/12/22 00:31:12;;;;;;;9.45;7.63;;;15.50;67.30;;;;;;3927842;30;20060;-63
2021/12/22 00:33:38;;;;;;;14.25;8.75;;;15.40;67.50;;;;;;3927885;30;20109;-63
2021/12/22 00:36:00;;;;;;;14.65;8.38;;;15.40;67.90;;;;;;3951419;29;23964;-61
2021/12/22 00:38:24;;;;;;;13.43;8.05;;;15.50;67.80;;;;;;3942553;29;20060;-61
2021/12/22 00:40:47;;;;;;;12.52;8.02;;;15.50;67.50;;;;;;3942473;29;20059;-62
2021/12/22 00:43:10;;;;;;;12.63;8.52;;;15.50;67.20;;;;;;3942044;29;22266;-62
2021/12/22 00:45:33;;;;;;;13.60;8.85;;;15.60;67.00;;;;;;3942246;29;20481;-61
2021/12/22 00:47:56;;;;;;;12.55;9.07;;;15.60;67.10;;;;;;3942058;29;20067;-62
2021/12/22 00:50:18;;;;;;;16.80;8.55;;;15.60;67.10;;;;;;3942600;29;20051;-62
2021/12/22 00:52:40;;;;;;;11.15;7.88;;;15.70;66.90;;;;;;3942206;29;20048;-62
2021/12/22 00:55:04;;;;;;;10.18;7.50;;;15.70;66.40;;;;;;3940468;29;20052;-62
2021/12/22 00:57:26;;;;;;;15.88;8.05;;;15.70;66.10;;;;;;3942084;29;20056;-62
2021/12/22 00:59:49;;;;;;;12.45;8.15;;;15.70;66.10;;;;;;3953342;29;20059;-62
2021/12/22 01:02:13;;;;;;;10.90;8.00;;;15.70;66.10;;;;;;3942001;29;20130;-62
2021/12/22 01:04:35;;;;;;;12.43;8.02;;;15.60;66.30;;;;;;3940670;29;20058;-64
2021/12/22 01:06:57;;;;;;;11.18;7.82;;;15.60;66.70;;;;;;3942040;29;20054;-62
2021/12/22 01:09:20;;;;;;;13.18;8.45;;;15.60;66.90;;;;;;3952738;29;20062;-62
2021/12/22 01:11:44;;;;;;;12.45;8.27;;;15.70;66.60;;;;;;3942263;29;20127;-62
2021/12/22 01:14:06;;;;;;;14.05;8.55;;;15.80;65.90;;;;;;3941688;29;20064;-60
2021/12/22 01:16:28;;;;;;;10.68;7.75;;;15.90;65.60;;;;;;3941921;29;20113;-60
2021/12/22 01:18:51;;;;;;;12.93;9.00;;;15.90;65.50;;;;;;3941751;29;20052;-59
2021/12/22 01:21:20;;;;;;;11.23;8.02;;;15.90;65.30;;;;;;3941962;29;20343;-60
2021/12/22 01:23:58;;;;;;;10.88;8.35;;;15.80;65.30;;;;;;3941636;29;20060;-59
2021/12/22 01:26:20;;;;;;;14.30;7.70;;;15.70;65.50;;;;;;3927211;30;20421;-59
2021/12/22 01:28:44;;;;;;;10.00;8.07;;;15.70;66.10;;;;;;3927249;30;20472;-60
2021/12/22 01:31:06;;;;;;;12.77;8.15;;;15.70;66.20;;;;;;3928464;29;20060;-59
2021/12/22 01:33:28;;;;;;;9.07;7.88;;;15.70;65.90;;;;;;3926936;29;20505;-59
2021/12/22 01:35:50;;;;;;;11.23;8.00;;;15.70;65.60;;;;;;3941097;29;20476;-59
2021/12/22 01:38:13;;;;;;;13.98;8.20;;;15.70;65.20;;;;;;3941859;29;20071;-59
2021/12/22 01:40:39;;;;;;;11.27;8.05;;;15.70;65.20;;;;;;3941419;29;20052;-59
2021/12/22 01:43:02;;;;;;;10.95;7.63;;;15.70;65.60;;;;;;3941937;29;20594;-59
2021/12/22 01:45:56;;;;;;;10.48;8.10;;;15.60;65.90;;;;;;3941372;29;20079;-60
2021/12/22 01:51:05;;;;;;;11.73;8.18;;;15.70;65.60;;;;;;3941300;29;20066;-59
2021/12/22 01:53:41;;;;;;;14.35;8.20;;;15.60;65.20;;;;;;3940923;29;20048;-60
2021/12/22 01:56:13;;;;;;;9.93;7.93;;;15.60;65.10;;;;;;3941149;29;20079;-62
2021/12/22 01:58:37;;;;;;;11.55;6.97;;;15.50;65.40;;;;;;3941097;29;20074;-62
2021/12/22 02:01:03;;;;;;;10.98;7.97;;;15.50;66.00;;;;;;3941295;29;20075;-61
2021/12/22 02:03:25;;;;;;;11.13;7.95;;;15.50;66.50;;;;;;3941209;29;20175;-61
2021/12/22 02:05:47;;;;;;;9.35;7.47;;;15.60;66.20;;;;;;3926502;30;20520;-61
2021/12/22 02:08:09;;;;;;;9.60;7.93;;;15.60;65.70;;;;;;3926745;30;20056;-61
2021/12/22 02:10:40;;;;;;;10.75;8.15;;;15.60;65.40;;;;;;3926924;30;20063;-58
2021/12/22 02:13:03;;;;;;;;;;;15.60;65.10;;;;;;3926987;30;20065;-59
2021/12/22 02:15:28;;;;;;;11.10;7.60;;;15.60;65.30;;;;;;3927574;30;19926;-61
2021/12/22 02:17:56;;;;;;;15.32;8.70;;;15.50;65.60;;;;;;3929484;30;20083;-62
2021/12/22 02:20:20;;;;;;;15.38;8.07;;;15.50;65.90;;;;;;3929913;30;20421;-62
2021/12/22 02:22:43;;;;;;;13.60;8.15;;;15.50;66.00;;;;;;3929473;30;20228;-61
2021/12/22 02:25:13;;;;;;;13.00;8.55;;;15.50;65.90;;;;;;3943765;29;20064;-61
2021/12/22 02:27:44;;;;;;;9.63;7.78;;;15.60;65.60;;;;;;3944537;29;20047;-60
2021/12/22 02:30:15;;;;;;;11.88;8.23;;;15.60;65.60;;;;;;3944049;29;20142;-59
2021/12/22 02:35:14;;;;;;;10.60;8.35;;;15.60;65.10;;;;;;3939438;29;20505;-61
2021/12/22 02:37:43;;;;;;;11.50;8.00;;;15.60;64.90;;;;;;3929332;30;20063;-61
2021/12/22 02:40:12;;;;;;;11.43;8.38;;;15.60;65.30;;;;;;3928083;30;20128;-61
2021/12/22 02:42:34;;;;;;;12.65;8.55;;;15.50;65.10;;;;;;3929146;30;20394;-61
2021/12/22 02:44:56;;;;;;;11.63;8.20;;;15.50;65.00;;;;;;3943443;29;20063;-61
2021/12/22 02:47:20;;;;;;;10.85;8.23;;;15.50;65.00;;;;;;3943980;29;20081;-61
2021/12/22 02:49:42;;;;;;;12.10;8.25;;;15.50;65.50;;;;;;3943930;29;20087;-60
2021/12/22 02:52:04;;;;;;;13.55;8.07;;;15.50;65.80;;;;;;3944066;29;20063;-62
2021/12/22 02:54:28;;;;;;;11.18;7.82;;;15.60;65.60;;;;;;3943687;29;20090;-61
2021/12/22 02:56:56;;;;;;;13.68;8.68;;;15.60;64.90;;;;;;3943964;29;20155;-62
2021/12/22 02:59:40;;;;;;;11.18;8.25;;;15.60;64.80;;;;;;3943377;29;20059;-61
2021/12/22 03:04:54;;;;;;;17.20;10.20;;;15.70;65.10;;;;;;3922190;30;20125;-61
2021/12/22 03:07:18;;;;;;;17.35;8.93;;;15.70;64.70;;;;;;3928994;30;20052;-61
2021/12/22 03:09:41;;;;;;;17.95;10.57;;;15.80;64.40;;;;;;3928974;30;20052;-62
2021/12/22 03:12:06;;;;;;;15.98;9.35;;;15.80;64.00;;;;;;3929115;30;20059;-61
2021/12/22 03:14:28;;;;;;;13.32;9.35;;;15.80;64.20;;;;;;3941799;29;20089;-61
2021/12/22 03:16:51;;;;;;;13.15;9.20;;;15.80;64.30;;;;;;3943707;29;20059;-61
2021/12/22 03:19:16;;;;;;;13.95;9.98;;;15.80;63.90;;;;;;3943580;29;20473;-61
2021/12/22 03:21:40;;;;;;;13.25;8.48;;;15.70;64.00;;;;;;3943837;29;20121;-61
2021/12/22 03:24:02;;;;;;;12.85;8.57;;;15.70;64.10;;;;;;3943270;29;20598;-61
2021/12/22 03:26:26;;;;;;;14.52;10.52;;;15.70;64.10;;;;;;3942991;29;20055;-61
2021/12/22 03:28:48;;;;;;;16.45;8.85;;;15.60;63.90;;;;;;3943522;29;20125;-61
2021/12/22 03:31:10;;;;;;;15.55;9.75;;;15.60;64.20;;;;;;3943436;29;20059;-61
2021/12/22 03:33:32;;;;;;;12.73;9.80;;;15.50;64.30;;;;;;3942925;29;20489;-61
2021/12/22 03:35:54;;;;;;;13.77;10.20;;;15.50;64.80;;;;;;3928568;30;20090;-62
2021/12/22 03:38:16;;;;;;;12.90;8.52;;;15.50;65.30;;;;;;3928525;30;20056;-61
2021/12/22 03:40:38;;;;;;;14.48;9.88;;;15.50;65.50;;;;;;3932795;29;20420;-61
2021/12/22 03:43:01;;;;;;;14.32;9.88;;;15.60;65.90;;;;;;3943325;29;20169;-61
2021/12/22 03:45:23;;;;;;;16.25;9.70;;;15.70;64.30;;;;;;3943133;29;20055;-61
2021/12/22 03:47:46;;;;;;;15.57;8.32;;;15.80;63.70;;;;;;3943483;29;20132;-61
2021/12/22 03:50:10;;;;;;;13.27;8.98;;;15.90;64.50;;;;;;3942637;29;20058;-61
2021/12/22 03:52:31;;;;;;;14.55;8.77;;;15.90;63.50;;;;;;3928486;29;20082;-61
2021/12/22 03:54:58;;;;;;;14.98;8.75;;;15.90;63.30;;;;;;3928534;29;20044;-61
2021/12/22 03:57:19;;;;;;;10.48;8.30;;;15.90;63.30;;;;;;3928706;29;20485;-61
2021/12/22 03:59:43;;;;;;;16.27;8.55;;;15.80;63.40;;;;;;3935702;29;20067;-61
2021/12/22 04:02:05;;;;;;;14.02;8.30;;;15.80;63.60;;;;;;3943455;30;20595;-61
2021/12/22 04:04:27;;;;;;;10.93;7.85;;;15.80;63.80;;;;;;3942931;30;20051;-61
2021/12/22 04:06:51;;;;;;;11.00;8.20;;;15.80;63.60;;;;;;3942605;29;20194;-61
2021/12/22 04:09:14;;;;;;;11.85;7.80;;;15.80;63.90;;;;;;3942808;29;20051;-61
2021/12/22 04:11:37;;;;;;;10.32;8.10;;;15.80;63.00;;;;;;3942842;29;20406;-61
2021/12/22 04:13:59;;;;;;;14.63;8.00;;;15.80;63.40;;;;;;3943059;29;20082;-61
2021/12/22 04:16:22;;;;;;;15.95;8.20;;;15.70;63.70;;;;;;3942685;29;20059;-61
2021/12/22 04:18:45;;;;;;;13.25;9.85;;;15.70;63.80;;;;;;3941964;29;20055;-61
2021/12/22 04:21:07;;;;;;;11.02;8.55;;;15.80;63.70;;;;;;3941859;29;20083;-61
2021/12/22 04:23:29;;;;;;;12.20;8.82;;;15.90;63.30;;;;;;3942050;29;20409;-60
2021/12/22 04:25:51;;;;;;;13.35;8.10;;;15.90;63.00;;;;;;3941588;29;20415;-61
2021/12/22 04:28:14;;;;;;;13.82;8.77;;;15.90;63.00;;;;;;3942713;29;20055;-62
2021/12/22 04:30:38;;;;;;;10.85;8.45;;;15.90;63.30;;;;;;3928007;30;20166;-61
2021/12/22 04:33:03;;;;;;;15.68;8.57;;;15.90;63.10;;;;;;3941946;29;20428;-62
2021/12/22 04:35:25;;;;;;;11.35;8.55;;;16.00;62.60;;;;;;3942583;29;20077;-61
2021/12/22 04:37:48;;;;;;;11.93;9.15;;;16.10;62.20;;;;;;3953780;29;20115;-61
2021/12/22 04:40:11;;;;;;;11.55;8.32;;;16.10;61.90;;;;;;3942379;29;20052;-61
2021/12/22 04:42:33;;;;;;;10.20;8.45;;;16.00;61.90;;;;;;3942738;29;20195;-61
2021/12/22 04:44:57;;;;;;;12.27;9.07;;;16.00;62.40;;;;;;3942148;29;20433;-62
2021/12/22 04:47:19;;;;;;;13.95;8.73;;;15.90;62.50;;;;;;3942272;29;20047;-61
2021/12/22 04:49:42;;;;;;;13.18;8.82;;;15.90;62.60;;;;;;3935480;29;20501;-61
2021/12/22 04:52:07;;;;;;;12.27;8.82;;;15.80;62.50;;;;;;3942137;29;20055;-61
2021/12/22 04:54:42;;;;;;;10.07;8.48;;;15.80;62.80;;;;;;3942315;29;20075;-61
2021/12/22 04:57:04;;;;;;;9.68;8.30;;;15.70;63.10;;;;;;3941838;29;20056;-61
2021/12/22 04:59:26;;;;;;;9.65;7.82;;;15.70;63.20;;;;;;3941833;29;20047;-61
2021/12/22 05:01:48;;;;;;;11.32;8.02;;;15.60;63.10;;;;;;3942130;29;20116;-61
2021/12/22 05:04:11;;;;;;;10.15;8.57;;;15.60;63.30;;;;;;3941701;29;20064;-61
2021/12/22 05:06:35;;;;;;;11.30;8.20;;;15.60;63.90;;;;;;3941965;29;20059;-61
2021/12/22 05:08:57;;;;;;;14.30;8.27;;;15.60;64.00;;;;;;3942185;29;25088;-61
2021/12/22 05:11:19;;;;;;;12.05;8.48;;;15.60;63.70;;;;;;3953016;29;20055;-61
2021/12/22 05:13:41;;;;;;;10.38;8.52;;;15.70;63.50;;;;;;3942125;29;20071;-61
2021/12/22 05:16:05;;;;;;;10.25;8.38;;;15.60;63.00;;;;;;3941674;29;20059;-61
2021/12/22 05:18:47;;;;;;;9.75;8.27;;;15.70;63.10;;;;;;3941631;29;20132;-61
2021/12/22 05:21:09;;;;;;;11.13;8.38;;;15.60;63.00;;;;;;3941750;29;20183;-60
2021/12/22 05:23:33;;;;;;;12.40;7.72;;;15.50;63.50;;;;;;3941441;29;20147;-61
2021/12/22 05:25:55;;;;;;;9.65;8.60;;;15.50;64.00;;;;;;3941656;29;20521;-61
2021/12/22 05:28:17;;;;;;;10.85;8.75;;;15.60;63.70;;;;;;3941963;29;20075;-61
2021/12/22 05:30:39;;;;;;;11.60;8.95;;;15.70;63.30;;;;;;3941895;29;20485;-61
2021/12/22 05:33:01;;;;;;;11.43;9.07;;;15.70;62.80;;;;;;3941815;29;20101;-61
2021/12/22 05:35:24;;;;;;;10.23;8.55;;;15.70;62.60;;;;;;3941426;29;20063;-61
2021/12/22 05:37:46;;;;;;;9.52;8.05;;;15.60;62.60;;;;;;3941660;29;20126;-61
2021/12/22 05:40:10;;;;;;;11.07;9.05;;;15.60;62.60;;;;;;3941717;29;20142;-61
2021/12/22 05:42:32;;;;;;;10.73;9.10;;;15.50;62.80;;;;;;3941925;29;20055;-61
2021/12/22 05:44:55;;;;;;;11.77;9.30;;;15.40;64.40;;;;;;3941605;29;20056;-61
2021/12/22 05:47:17;;;;;;;12.20;9.50;;;15.40;64.20;;;;;;3941507;29;20052;-62
2021/12/22 05:49:40;;;;;;;12.27;8.82;;;15.50;64.10;;;;;;3941471;29;20051;-62
2021/12/22 05:52:02;;;;;;;11.38;8.38;;;15.50;63.90;;;;;;3941437;29;20112;-62
2021/12/22 05:54:25;;;;;;;13.15;9.45;;;15.60;63.60;;;;;;3941177;29;20954;-62
2021/12/22 05:56:49;;;;;;;11.95;9.40;;;15.70;63.20;;;;;;3941074;29;21150;-62
2021/12/22 05:59:11;;;;;;;13.55;9.27;;;15.80;62.70;;;;;;3941383;29;20071;-62
2021/12/22 06:01:33;;;;;;;13.63;10.30;;;15.80;62.60;;;;;;3941203;29;20055;-63
2021/12/22 06:03:55;;;;;;;12.00;9.68;;;15.80;62.60;;;;;;3941051;29;20054;-60
2021/12/22 06:06:18;;;;;;;11.45;9.25;;;15.80;62.50;;;;;;3941182;29;20116;-59
2021/12/22 06:08:40;;;;;;;13.25;9.70;;;15.70;62.30;;;;;;3941020;29;20055;-59
2021/12/22 06:11:01;;;;;;;12.95;9.57;;;15.70;62.50;;;;;;3941166;29;20469;-59
2021/12/22 06:13:25;;;;;;;12.45;9.65;;;15.60;62.80;;;;;;3940903;29;20062;-59
2021/12/22 06:15:47;;;;;;;13.68;9.25;;;15.60;63.30;;;;;;3941018;29;20135;-60
2021/12/22 06:18:10;;;;;;;10.60;9.55;;;15.70;63.00;;;;;;3941521;29;20066;-59
2021/12/22 06:20:33;;;;;;;12.88;9.55;;;15.80;62.60;;;;;;3941400;29;20060;-59
2021/12/22 06:22:55;;;;;;;12.77;9.88;;;15.80;62.40;;;;;;3941138;29;20064;-60
2021/12/22 06:25:18;;;;;;;12.13;9.35;;;15.80;62.30;;;;;;3940749;29;20440;-60
2021/12/22 06:27:40;;;;;;;11.65;9.43;;;15.80;62.10;;;;;;3941130;29;20068;-59
2021/12/22 06:30:04;;;;;;;12.82;9.95;;;15.70;62.00;;;;;;3940922;29;20526;-60
2021/12/22 06:32:27;;;;;;;12.73;10.25;;;15.60;62.10;;;;;;3941135;29;20078;-60
2021/12/22 06:34:48;;;;;;;12.52;9.30;;;15.60;62.50;;;;;;3940785;29;20056;-62
2021/12/22 06:37:13;;;;;;;11.40;9.48;;;15.50;63.10;;;;;;3940665;29;20485;-63
2021/12/22 06:39:35;;;;;;;12.73;9.98;;;15.60;63.20;;;;;;3940656;29;20056;-60
2021/12/22 06:41:58;;;;;;;12.38;9.95;;;15.60;63.80;;;;;;3927710;29;20407;-60
2021/12/22 06:44:19;;;;;;;12.25;9.65;;;15.70;62.60;;;;;;3941153;29;20378;-60
2021/12/22 06:46:43;;;;;;;12.93;10.18;;;15.80;62.10;;;;;;3940970;29;20501;-60
2021/12/22 06:49:05;;;;;;;12.07;9.48;;;15.80;61.90;;;;;;3941087;29;20054;-60
2021/12/22 06:51:27;;;;;;;14.27;10.13;;;15.80;61.80;;;;;;3940900;29;20055;-59
2021/12/22 06:53:49;;;;;;;15.35;9.32;;;15.80;61.90;;;;;;3940473;29;20071;-59
2021/12/22 06:56:11;;;;;;;14.55;10.23;;;15.90;61.90;;;;;;3940796;29;20424;-60
2021/12/22 06:58:34;;;;;;;13.07;9.82;;;15.90;61.70;;;;;;3941329;29;20054;-60
2021/12/22 07:00:56;;;;;;;13.40;10.00;;;15.90;61.60;;;;;;3941202;29;20055;-59
2021/12/22 07:03:20;;;;;;;14.10;9.70;;;15.90;61.70;;;;;;3943669;29;20063;-60
2021/12/22 07:05:42;;;;;;;15.02;9.95;;;15.90;61.80;;;;;;3943501;29;20048;-60
2021/12/22 07:08:04;;;;;;;13.40;10.02;;;16.00;61.90;;;;;;3943642;29;20123;-61
2021/12/22 07:10:26;;;;;;;12.98;9.70;;;16.00;61.80;;;;;;3942221;29;20078;-60
2021/12/22 07:12:49;;;;;;;13.88;10.15;;;16.10;61.60;;;;;;3943015;29;20064;-60
2021/12/22 07:15:13;;;;;;;16.35;10.40;;;16.20;61.20;;;;;;3941754;29;20467;-60
2021/12/22 07:17:35;;;;;;;12.45;9.60;;;16.20;61.20;;;;;;3943614;29;20146;-60
2021/12/22 07:19:59;;;;;;;13.90;9.82;;;16.20;61.40;;;;;;3943299;29;20044;-61
2021/12/22 07:22:20;;;;;;;12.68;9.70;;;16.20;61.20;;;;;;3941947;29;20052;-61
2021/12/22 07:24:43;;;;;;;13.23;9.77;;;16.20;61.20;;;;;;3935060;29;20071;-61
2021/12/22 07:27:05;;;;;;;13.23;10.15;;;16.30;61.10;;;;;;3943715;29;20048;-61
2021/12/22 07:29:27;;;;;;;12.52;9.60;;;16.30;60.80;;;;;;3951965;29;20055;-60
2021/12/22 07:31:50;;;;;;;13.57;9.35;;;16.40;60.50;;;;;;3943558;29;20138;-61
2021/12/22 07:34:17;;;;;;;12.43;9.82;;;16.40;60.30;;;;;;3943639;29;20072;-61
2021/12/22 07:36:51;;;;;;;13.00;10.52;;;16.40;60.30;;;;;;3943113;29;20047;-61
2021/12/22 07:39:13;;;;;;;17.50;11.27;;;16.30;59.90;;;;;;3940597;30;20059;-60
2021/12/22 07:41:35;;;;;;;13.57;10.55;;;16.30;60.30;;;;;;3939932;30;20120;-61
2021/12/22 07:44:00;;;;;;;13.88;9.77;;;16.20;60.30;;;;;;3940358;30;20063;-60
2021/12/22 07:46:23;;;;;;;12.80;9.68;;;16.20;60.50;;;;;;3940438;30;20109;-60
2021/12/22 07:48:46;;;;;;;13.93;10.05;;;16.20;60.80;;;;;;3939093;30;20113;-60
2021/12/22 07:51:08;;;;;;;14.35;10.38;;;16.20;60.70;;;;;;3940681;30;20492;-60
2021/12/22 07:53:31;;;;;;;11.65;8.98;;;16.20;60.60;;;;;;3940346;30;20047;-60
2021/12/22 07:55:53;;;;;;;14.00;9.75;;;16.20;60.50;;;;;;3940888;30;20048;-60
2021/12/22 07:58:16;;;;;;;15.10;9.80;;;16.30;60.80;;;;;;3941006;30;20071;-60
2021/12/22 08:00:38;;;;;;;14.45;10.27;;;16.40;60.90;;;;;;3940624;30;20087;-61
2021/12/22 08:03:01;;;;;;;18.08;10.70;;;16.50;60.50;;;;;;3940448;30;20112;-60
2021/12/22 08:05:43;;;;;;;14.88;10.15;;;16.40;60.10;;;;;;3940282;30;20127;-60
2021/12/22 08:08:05;;;;;;;14.07;9.30;;;16.40;60.30;;;;;;3940642;30;20090;-61
2021/12/22 08:10:29;;;;;;;13.10;9.80;;;16.30;60.40;;;;;;3940316;30;20064;-60
2021/12/22 08:12:51;;;;;;;13.82;9.55;;;16.30;61.50;;;;;;3939442;29;20071;-59
2021/12/22 08:15:15;;;;;;;13.52;9.73;;;16.30;60.50;;;;;;3951286;29;20208;-60
2021/12/22 08:17:37;;;;;;;14.35;9.65;;;16.30;60.50;;;;;;3940964;30;20048;-60
2021/12/22 08:19:59;;;;;;;14.10;9.93;;;16.20;60.60;;;;;;3940589;30;20102;-60
2021/12/22 08:22:22;;;;;;;16.58;10.73;;;16.20;60.70;;;;;;3940642;30;20063;-60
2021/12/22 08:24:44;;;;;;;12.27;9.68;;;16.10;61.10;;;;;;3939394;29;20527;-60
2021/12/22 08:27:07;;;;;;;15.00;9.82;;;16.00;61.40;;;;;;3939614;29;20091;-60
2021/12/22 08:29:29;;;;;;;11.20;9.35;;;16.00;61.70;;;;;;3939801;29;20056;-60
2021/12/22 08:31:52;;;;;;;14.73;10.45;;;16.00;62.60;;;;;;3939911;30;20109;-60
2021/12/22 08:34:22;;;;;;;14.90;9.90;;;16.10;61.60;;;;;;3940254;30;20118;-59
2021/12/22 08:39:23;;;;;;;14.57;10.23;;;16.10;61.30;;;;;;3939893;30;20090;-61
2021/12/22 08:41:47;;;;;;;14.70;10.10;;;16.00;61.20;;;;;;3939130;30;20056;-60
2021/12/22 08:44:12;;;;;;;16.38;9.90;;;16.00;61.40;;;;;;3938776;29;20514;-60
2021/12/22 08:46:36;;;;;;;17.63;10.85;;;15.90;61.60;;;;;;3940375;30;20145;-60
2021/12/22 08:48:59;;;;;;;13.98;9.48;;;16.00;61.80;;;;;;3940005;30;20193;-60
2021/12/22 08:51:22;;;;;;;12.90;10.15;;;16.00;61.70;;;;;;3939907;30;20161;-60
2021/12/22 08:53:44;;;;;;;14.43;9.77;;;16.10;61.50;;;;;;3939734;30;20063;-59
2021/12/22 08:56:07;;;;;;;15.52;10.05;;;16.20;61.20;;;;;;3939575;29;20086;-59
2021/12/22 08:58:28;;;;;;;16.10;9.80;;;16.20;60.80;;;;;;3940016;30;20125;-59
2021/12/22 09:00:52;;;;;;;12.52;8.77;;;16.20;60.60;;;;;;3939562;30;20068;-59
2021/12/22 09:03:14;;;;;;;13.95;9.88;;;16.10;60.70;;;;;;3939493;30;20105;-59
2021/12/22 09:05:40;;;;;;;15.70;10.27;;;16.10;60.70;;;;;;3939741;30;20055;-60
2021/12/22 09:08:02;;;;;;;12.65;9.57;;;16.10;60.90;;;;;;3939635;30;20464;-59
2021/12/22 09:10:25;;;;;;;14.73;9.63;;;16.10;61.10;;;;;;3939984;30;20079;-59
2021/12/22 09:12:47;;;;;;;13.18;9.80;;;16.00;61.20;;;;;;3940000;30;20134;-59
2021/12/22 09:15:10;;;;;;;17.92;10.40;;;16.00;61.80;;;;;;3940025;30;20055;-59
2021/12/22 09:17:33;;;;;;;14.15;9.82;;;16.00;62.40;;;;;;3939437;30;20063;-59
2021/12/22 09:19:56;;;;;;;17.20;10.50;;;16.10;62.60;;;;;;3939044;30;20455;-59
2021/12/22 09:22:18;;;;;;;17.63;10.25;;;16.20;62.50;;;;;;3939636;29;20083;-59
2021/12/22 09:24:41;;;;;;;16.17;11.18;;;16.30;62.30;;;;;;3938319;30;20481;-59
2021/12/22 09:27:03;;;;;;;17.83;11.02;;;16.30;62.00;;;;;;3938926;30;20121;-59
2021/12/22 09:29:29;;;;;;;13.48;10.25;;;16.40;61.80;;;;;;3939273;30;20094;-60
2021/12/22 09:31:51;;;;;;;18.75;10.18;;;16.30;61.70;;;;;;3939371;30;20056;-61
2021/12/22 09:34:15;;;;;;;14.98;9.27;;;16.30;61.90;;;;;;3939217;30;20067;-60
2021/12/22 09:36:39;;;;;;;16.13;10.25;;;16.20;62.20;;;;;;3939071;30;20513;-61
2021/12/22 09:39:03;;;;;;;15.98;9.77;;;16.20;62.50;;;;;;3938985;30;20055;-60
2021/12/22 09:41:25;;;;;;;17.20;10.15;;;16.30;62.30;;;;;;3939161;29;20066;-59
2021/12/22 09:43:47;;;;;;;15.75;10.55;;;16.40;61.80;;;;;;3939063;30;20055;-60
2021/12/22 09:46:15;;;;;;;17.70;10.93;;;16.50;61.40;;;;;;3939266;29;20054;-60
2021/12/22 09:48:49;;;;;;;15.95;10.85;;;16.50;61.10;;;;;;3939583;30;20044;-60
2021/12/22 09:53:55;;;;;;;16.20;9.63;;;16.40;61.00;;;;;;3938889;30;20464;-59
2021/12/22 09:56:23;;;;;;;18.00;11.10;;;16.40;61.40;;;;;;3949176;29;20067;-60
2021/12/22 09:58:47;;;;;;;16.67;11.27;;;16.30;61.30;;;;;;3938404;29;20595;-60
2021/12/22 10:01:09;;;;;;;17.35;14.40;;;16.30;61.30;;;;;;3938901;29;20493;-60
2021/12/22 10:03:32;;;;;;;15.20;9.95;;;16.20;61.30;;;;;;3938624;30;20417;-59
2021/12/22 10:05:54;;;;;;;14.85;10.95;;;16.20;61.50;;;;;;3938813;29;20067;-61
2021/12/22 10:08:20;;;;;;;17.50;10.88;;;16.10;61.80;;;;;;3950271;29;20066;-59
2021/12/22 10:10:45;;;;;;;17.58;10.77;;;16.00;62.00;;;;;;3949862;29;20059;-60
2021/12/22 10:13:10;;;;;;;16.58;9.93;;;16.00;62.00;;;;;;3938850;29;20071;-59
2021/12/22 10:15:34;;;;;;;13.15;10.05;;;16.00;62.10;;;;;;3938918;29;20117;-59
2021/12/22 10:18:08;;;;;;;18.17;11.23;;;15.90;62.40;;;;;;3938427;30;20163;-60
2021/12/22 10:20:30;;;;;;;14.20;10.10;;;15.90;62.20;;;;;;3938843;30;20052;-59
2021/12/22 10:22:52;;;;;;;19.15;9.40;;;15.90;62.30;;;;;;3939014;30;20056;-59
2021/12/22 10:25:18;;;;;;;15.63;9.68;;;15.90;62.30;;;;;;3938696;30;20066;-59
2021/12/22 10:27:43;;;;;;;16.27;9.70;;;15.80;62.40;;;;;;3938498;30;20063;-60
2021/12/22 10:30:30;;;;;;;15.70;9.20;;;15.80;62.90;;;;;;3938762;30;20071;-59
2021/12/22 10:33:05;;;;;;;17.20;10.00;;;15.80;62.50;;;;;;3938507;30;20521;-58
2021/12/22 10:35:32;;;;;;;16.98;10.23;;;15.90;62.60;;;;;;3938532;30;20047;-59
2021/12/22 10:37:59;;;;;;;15.65;9.30;;;15.90;62.60;;;;;;3940914;30;20467;-60
2021/12/22 10:40:26;;;;;;;13.80;8.80;;;15.90;62.50;;;;;;3940285;29;20062;-59
2021/12/22 10:42:48;;;;;;;16.33;9.93;;;15.80;62.60;;;;;;3940823;29;20075;-59
2021/12/22 10:45:15;;;;;;;14.95;9.70;;;15.80;62.80;;;;;;3940897;29;20135;-60
2021/12/22 10:50:25;;;;;;;12.57;9.05;;;15.60;63.40;;;;;;3939577;30;20101;-59
2021/12/22 10:52:50;;;;;;;16.75;9.45;;;15.60;63.90;;;;;;3941505;30;20409;-59
2021/12/22 10:55:15;;;;;;;14.88;10.50;;;15.60;64.00;;;;;;3941054;29;20067;-59
2021/12/22 10:57:40;;;;;;;15.60;10.68;;;15.60;63.90;;;;;;3940640;29;20069;-59
2021/12/22 11:00:13;;;;;;;14.13;11.27;;;15.60;63.90;;;;;;3941104;30;20063;-59
2021/12/22 11:02:38;;;;;;;17.92;11.93;;;15.60;63.90;;;;;;3939898;30;20052;-59
2021/12/22 11:05:03;;;;;;;16.58;12.18;;;15.60;64.00;;;;;;3940934;30;20059;-59
2021/12/22 11:07:28;;;;;;;16.50;11.18;;;15.50;64.10;;;;;;3940411;29;20059;-59
2021/12/22 11:09:51;;;;;;;17.60;12.35;;;15.50;64.30;;;;;;3939348;29;20055;-59
2021/12/22 11:12:17;;;;;;;20.27;13.48;;;15.50;64.60;;;;;;3940158;29;20063;-60
2021/12/22 11:14:42;;;;;;;31.90;19.67;;;15.40;64.80;;;;;;3940754;29;20059;-59
2021/12/22 11:17:06;;;;;;;23.73;16.10;;;15.40;64.90;;;;;;3940650;29;20168;-60
2021/12/22 11:19:31;;;;;;;19.95;13.30;;;15.40;65.10;;;;;;3940077;30;20062;-60
2021/12/22 11:22:02;;;;;;;26.50;17.23;;;15.50;64.90;;;;;;3940594;30;20470;-58
2021/12/22 11:24:24;;;;;;;27.40;16.83;;;15.50;64.50;;;;;;3941107;30;20419;-59
2021/12/22 11:26:47;;;;;;;20.20;13.80;;;15.60;64.30;;;;;;3941022;30;20059;-59
2021/12/22 11:29:09;;;;;;;22.92;15.30;;;15.70;64.20;;;;;;3940774;30;20416;-59
2021/12/22 11:31:32;;;;;;;29.90;19.05;;;15.80;63.90;;;;;;3940680;29;20562;-61
2021/12/22 11:33:56;;;;;;;25.98;17.10;;;15.90;63.40;;;;;;3940144;30;20525;-60
2021/12/22 11:36:18;;;;;;;26.48;16.20;;;16.00;63.10;;;;;;3940221;29;20058;-60
2021/12/22 11:38:42;;;;;;;27.38;18.95;;;16.00;62.90;;;;;;3940609;30;20055;-60
2021/12/22 11:41:11;;;;;;;31.65;22.83;;;16.00;62.90;;;;;;3939022;29;20132;-60
2021/12/22 11:43:36;;;;;;;33.08;20.05;;;15.90;63.00;;;;;;3939915;30;20055;-59
2021/12/22 11:45:58;;;;;;;64.32;39.60;;;15.90;63.30;;;;;;3940639;30;20059;-60
2021/12/22 11:48:22;;;;;;;28.55;19.27;;;15.80;63.60;;;;;;3939646;29;20071;-59
2021/12/22 11:50:47;;;;;;;29.27;18.15;;;15.80;63.90;;;;;;3940638;30;20060;-59
2021/12/22 11:53:09;;;;;;;28.73;19.63;;;15.70;64.00;;;;;;3940709;29;20059;-60
2021/12/22 11:55:39;;;;;;;43.85;28.52;;;15.70;64.60;;;;;;3938858;30;20059;-60
2021/12/22 11:58:14;;;;;;;40.63;24.63;;;15.60;64.70;;;;;;3938626;29;20063;-60
2021/12/22 12:00:37;;;;;;;36.25;22.85;;;15.70;64.50;;;;;;3939839;30;20074;-60
2021/12/22 12:03:00;;;;;;;37.05;23.90;;;15.70;64.30;;;;;;3940225;29;20048;-59
2021/12/22 12:05:26;;;;;;;30.25;21.02;;;15.70;64.10;;;;;;3940116;30;20622;-60
2021/12/22 12:07:52;;;;;;;25.13;16.77;;;15.70;64.10;;;;;;3940326;29;20055;-60
2021/12/22 12:10:40;;;;;;;35.95;22.10;;;15.70;64.20;;;;;;3939509;29;20060;-59
2021/12/22 12:13:07;;;;;;;31.33;20.05;;;15.70;64.00;;;;;;3939179;29;20060;-59
2021/12/22 12:22:32;;;;;;;28.35;19.83;;;15.70;63.70;;;;;;3885736;30;20057;-58
2021/12/22 12:25:03;;;;;;;27.73;16.98;;;15.70;64.00;;;;;;3893646;30;20667;-60
2021/12/22 12:27:33;;;;;;;;;;;15.60;64.20;;;;;;3934884;29;20056;-61
2021/12/22 12:29:57;;;;;;;26.30;18.15;;;15.60;64.60;;;;;;3939576;30;19999;-62
2021/12/22 12:32:53;;;;;;;31.65;18.67;;;15.50;65.00;;;;;;3939883;30;20572;-61
2021/12/22 12:35:23;;;;;;;28.38;20.25;;;15.50;64.80;;;;;;3939015;30;20047;-61
2021/12/22 12:38:04;;;;;;;32.53;21.63;;;15.60;64.50;;;;;;3938719;29;20056;-62
2021/12/22 12:41:11;;;;;;;28.30;19.10;;;15.70;64.20;;;;;;3939233;29;20355;-61
2021/12/22 12:43:54;;;;;;;44.42;28.55;;;15.70;64.00;;;;;;3939364;30;20062;-61